Brighton Beach, South Carolina
Current Conditions -  °F | °C
As of 5:50 PM on Sunday 21 Dec 2014 (Local Time) from KHXD Reporting Station
Overcast Overcast  
Wind Chill: 44°   Ceiling: 2400
Heat Index: 48°   Visibility: 8mi
Dew Point: 46°   Wind: 9mph
Humidity: 93%   Direction: 20°NNE
Pressure: 30.14"   Gusts: NA
Location:  32.2133°N, 80.9033°W
Report Text: KHXD 212250Z 02008KT 8SM SCT014 BKN024 OVC036 09/08 A3014
Loading
Personal Weather Stations






























Interactive Weather Map New forecast layout! Learn more

10-Day Weather Forecast

Advertisements
Track Severe Weather on mobile